Blue Oak Ranch Reserve, California Weather observations

Data are for 10 minute period ending at time listed.
 Day   Time   Solar   Ave.   Ave.  Ave.  Vector  Max.   Baro.   Total    
  of    of     Rad.   Air    Rel.  Wind   Wind   Wind  Press.  Precip.   
Year   Day            Temp.  Hum.  Speed  Dir.   Gust                    
2014   (PST)  Kw/m2    F      %     mph   deg.    mph    mb.     in.     
-------------------------------------------------------------------------
 264   20:10   0.00   56.5    87    0.0     0     0.0   948.9    0.00 
 264   20:20   0.00   56.0    87    0.2    42     1.2   949.0    0.00 
 264   20:30   0.00   55.9    88    2.1   291     3.5   949.1    0.00 
 264   20:40   0.00   56.0    88    0.9   285     1.8   949.2    0.00 
 264   20:50   0.00   55.4    88    0.1   307     0.8   949.3    0.00 
 264   21:00   0.00   55.2    89    0.1   134     0.9   949.3    0.00 
 264   21:10   0.00   55.0    90    1.2    67     1.9   949.2    0.00 
 264   21:20   0.00   54.8    90    0.7   102     1.5   949.1    0.00 
 264   21:30   0.00   54.2    90    1.9   305     2.6   949.2    0.00 
 264   21:40   0.00   54.3    91    1.7    10     2.3   949.2    0.00 
 264   21:50   0.00   53.9    91    1.4   318     2.5   949.2    0.00 
 264   22:00   0.00   54.0    92    1.0   299     2.2   949.1    0.00 
 264   22:10   0.00   53.6    92    0.6    63     1.5   948.9    0.00 
 264   22:20   0.00   53.2    92    3.1   292     4.0   948.9    0.00 
 264   22:30   0.01   52.7    92    1.8   294     4.2   949.0    0.00 
 264   22:40   0.01   53.3    93    1.8    68     2.9   949.1    0.00 
 264   22:50   0.01   54.3    93    1.3    48     2.8   949.0    0.00 
 264   23:00   0.01   54.0    91    1.9   284     3.1   949.0    0.00 
 264   23:10   0.01   54.7    92    1.0     4     1.7   949.1    0.00 
 264   23:20   0.01   55.1    92    1.5    50     2.9   949.1    0.00 
 264   23:30   0.01   55.2    93    2.2    58     3.7   949.1    0.00 
 264   23:40   0.01   55.7    93    1.7    62     3.1   949.0    0.00 
 264   23:50   0.01   55.6    93    0.3    15     1.0   949.0    0.00 
 265    0:00   0.01   55.6    94    1.6    64     3.5   948.9    0.00 
 265    0:10   0.01   55.0    94    1.1    50     2.3   949.0    0.00 
 265    0:20   0.01   54.4    94    2.2    53     3.4   949.0    0.00 
 265    0:30   0.01   54.1    95    0.7    72     2.6   948.9    0.00 
 265    0:40   0.01   53.5    94    0.2    31     1.2   948.9    0.00 
 265    0:50   0.01   53.0    95    0.0   280     0.4   949.0    0.00 
 265    1:00   0.01   52.7    95    0.5   351     1.5   948.9    0.00 
 265    1:10   0.01   52.1    95    2.2   280     3.3   948.8    0.00 
 265    1:20   0.00   51.7    95    0.7    60     2.3   948.8    0.00 
 265    1:30   0.00   51.9    95    1.0    57     2.0   948.8    0.00 
 265    1:40   0.01   52.2    95    0.7    42     2.1   948.8    0.00 
 265    1:50   0.01   52.5    95    0.3   304     2.0   948.7    0.00 
 265    2:00   0.01   52.6    95    0.3   356     1.5   948.7    0.00 
 265    2:10   0.01   52.4    95    0.9    60     1.8   948.6    0.00 
 265    2:20   0.00   51.8    95    1.7   287     3.1   948.5    0.00 
 265    2:30   0.00   51.4    96    1.6   288     3.1   948.6    0.00 
 265    2:40   0.00   50.8    96    2.1    57     2.6   948.6    0.00 
 265    2:50   0.00   50.4    96    0.2    41     1.5   948.6    0.00 
 265    3:00   0.00   50.4    96    1.2   295     2.2   948.6    0.00 
 265    3:10   0.00   50.5    96    2.3   299     3.1   948.7    0.00 
 265    3:20   0.00   50.4    96    1.7    58     3.3   948.7    0.00 
 265    3:30   0.00   51.6    96    1.8    54     3.2   948.7    0.00 
 265    3:40   0.00   51.9    96    0.8    52     2.6   948.8    0.00 
 265    3:50   0.00   52.3    96    3.8    58     6.2   948.8    0.00 
 265    4:00   0.01   54.1    96    2.5    33     5.7   948.8    0.00 
 265    4:10   0.01   53.3    96    1.8   294     3.4   948.7    0.00 
 265    4:20   0.01   53.4    96    3.3   295     6.6   948.8    0.00 
 265    4:30   0.01   54.4    96    1.9   280     4.7   948.8    0.00 
 265    4:40   0.01   54.6    96    1.8   332     5.2   948.9    0.00 
 265    4:50   0.01   54.6    96    1.6    48     2.8   948.8    0.00 
 265    5:00   0.01   54.6    96    1.3    70     2.2   948.7    0.00 
 265    5:10   0.01   54.6    96    0.5   358     2.0   948.7    0.00 
 265    5:20   0.00   54.2    96    0.9   342     2.0   948.7    0.00 
 265    5:30   0.00   54.2    96    2.1    50     3.9   948.7    0.00 
 265    5:40   0.01   53.8    96    3.0    35     4.5   948.8    0.00 
 265    5:50   0.01   53.6    96    2.1    48     3.3   948.9    0.00 
 265    6:00   0.01   53.3    96    2.8    49     4.2   949.0    0.00 
 265    6:10   0.01   53.3    96    2.2    53     3.9   948.9    0.00 
 265    6:20   0.01   53.6    96    0.7    94     1.8   949.0    0.00 
 265    6:30   0.02   53.6    96    1.9    70     3.4   949.1    0.00 
 265    6:40   0.04   53.6    96    2.2    74     3.8   949.1    0.00 
 265    6:50   0.06   53.9    97    1.4   294     3.5   949.2    0.00 
 265    7:00   0.06   54.2    96    1.6   341     3.7   949.3    0.00 
 265    7:10   0.07   54.7    96    2.0    68     4.5   949.3    0.00 
 265    7:20   0.10   54.8    96    1.1    97     2.5   949.2    0.00 
 265    7:30   0.11   55.1    96    1.0   106     2.0   949.1    0.00 
 265    7:40   0.20   56.7    96    0.3   224     2.5   949.0    0.00 
 265    7:50   0.20   57.5    95    1.8   239     5.7   949.2    0.00 
 265    8:00   0.32   58.3    95    2.1   249     5.0   949.2    0.00 
 265    8:10   0.29   59.4    92    2.9   203     4.8   949.4    0.00 
 265    8:20   0.30   59.6    90    2.7   231     4.7   949.7    0.00 
 265    8:30   0.39   61.4    83    1.1   185     2.6   949.7    0.00 
 265    8:40   0.41   64.4    74    2.4   249     4.8   949.7    0.00 
 265    8:50   0.44   64.9    74    6.1   255    11.8   950.0    0.00 
 265    9:00   0.47   63.1    77    5.5   230    10.8   950.4    0.00 
 265    9:10   0.49   63.8    75    5.0   232    10.4   950.5    0.00 
 265    9:20   0.52   64.1    74    5.5   248     9.9   950.6    0.00 
 265    9:30   0.54   64.4    73    3.4   207     7.6   950.5    0.00 
 265    9:40   0.56   65.9    70    3.8   241     6.2   950.4    0.00 
 265    9:50   0.58   67.3    67    3.8   252     5.7   950.4    0.00 
 265   10:00   0.60   68.9    64    3.0   248     6.2   950.4    0.00 
 265   10:10   0.62   69.6    62    4.4   249     8.3   950.4    0.00 
 265   10:20   0.64   68.9    64    5.5   248     9.6   950.6    0.00 
 265   10:30   0.65   68.6    64    3.8   226     9.1   950.5    0.00 
 265   10:40   0.67   70.3    60    4.0   218     7.4   950.4    0.00 
 265   10:50   0.68   71.3    59    4.3   228     6.4   950.3    0.00 
 265   11:00   0.69   72.0    58    3.1   217     6.6   950.1    0.00 
 265   11:10   0.71   74.7    53    2.8   258     6.4   949.9    0.00 
 265   11:20   0.71   74.3    54    6.7   260    12.7   950.0    0.00 
 265   11:30   0.71   72.5    57    7.1   255    12.8   950.2    0.00 
 265   11:40   0.72   73.1    55    4.8   236     9.2   950.0    0.00 
 265   11:50   0.72   74.6    53    5.2   246     9.7   950.0    0.00 
 265   12:00   0.73   73.9    54    5.7   239    11.6   949.9    0.00 
 265   12:10   0.73   74.6    52    5.4   238     9.1   949.9    0.00 
 265   12:20   0.73   74.6    52    5.5   242     8.8   949.9    0.00 
 265   12:30   0.72   73.8    53    5.8   220     9.4   949.7    0.00 
 265   12:40   0.71   76.0    50    4.5   228     8.6   949.6    0.00 
 265   12:50   0.69   76.6    49    6.0   244     9.1   949.5    0.00 
 265   13:00   0.70   76.4    48    5.3   236     8.7   949.4    0.00 
 265   13:10   0.69   77.6    45    5.5   234     8.3   949.4    0.00 
 265   13:20   0.68   77.5    43    4.6   245     8.3   949.2    0.00 
 265   13:30   0.67   78.5    40    3.9   253     7.2   949.1    0.00 
 265   13:40   0.66   79.5    38    3.3   230     6.6   949.0    0.00 
 265   13:50   0.64   80.7    33    4.1   247     7.3   948.8    0.00 
 265   14:00   0.62   81.4    34    4.3   228     7.5   948.6    0.00 
 265   14:10   0.60   81.7    36    4.5   238     9.1   948.5    0.00 
 265   14:20   0.58   81.4    38    5.2   258     9.6   948.4    0.00 
 265   14:30   0.56   81.6    39    5.8   246     9.1   948.4    0.00 
 265   14:40   0.54   81.4    40    6.0   247    10.7   948.3    0.00 
 265   14:50   0.52   80.1    42    6.2   251    11.3   948.2    0.00 
 265   15:00   0.49   80.7    40    5.2   243     8.6   948.1    0.00 
 265   15:10   0.47   80.9    40    5.0   245     8.6   948.0    0.00 
 265   15:20   0.44   80.5    41    5.4   242     8.6   948.0    0.00 
 265   15:30   0.40   79.8    44    6.1   251    12.0   948.0    0.00 
 265   15:40   0.37   78.2    46    6.6   260    12.4   948.1    0.00 
 265   15:50   0.36   78.0    45    7.4   281    11.5   948.2    0.00 
 265   16:00   0.33   78.0    44    6.1   280     9.6   948.3    0.00 
 265   16:10   0.24   77.3    46    6.1   276     9.1   948.3    0.00 
 265   16:20   0.27   76.4    49    4.8   241     9.6   948.3    0.00 
 265   16:30   0.14   75.3    49    4.0   253     7.9   948.3    0.00 
 265   16:40   0.08   73.1    52    3.8   253     8.0   948.4    0.00 
 265   16:50   0.14   71.5    54    2.6   239     5.9   948.4    0.00 
 265   17:00   0.11   71.3    55    2.3   214     3.7   948.4    0.00 
 265   17:10   0.14   71.9    54    2.2   229     4.0   948.3    0.00 
 265   17:20   0.13   72.4    54    2.5   242     3.8   948.3    0.00 
 265   17:30   0.10   72.6    54    2.3   238     4.2   948.4    0.00 
 265   17:40   0.07   72.1    54    3.1   269     7.2   948.3    0.00 
 265   17:50   0.03   69.5    60    4.3   274     6.7   948.3    0.00 
 265   18:00   0.01   67.5    64    3.3   275     5.0   948.3    0.00 
 265   18:10   0.01   66.3    65    1.4   230     3.4   948.3    0.00 
 265   18:20   0.00   65.0    67    0.9   181     1.8   948.1    0.00 
 265   18:30   0.00   64.0    68    0.6   243     1.6   948.1    0.00 
 265   18:40   0.00   62.9    69    0.8    49     1.7   948.0    0.00 
 265   18:50   0.00   62.2    70    0.9    62     2.1   947.9    0.00 
 265   19:00   0.00   61.3    73    1.9   298     3.7   947.9    0.00 
 265   19:10   0.00   60.8    73    1.6    58     3.2   947.8    0.00 
 265   19:20   0.00   60.3    74    2.1   292     3.9   947.7    0.00 
 265   19:30   0.00   60.1    74    1.0   294     3.7   947.8    0.00 
 265   19:40   0.00   59.7    75    0.0   108     0.4   947.9    0.00 
 265   19:50   0.00   59.3    75    0.8   282     2.3   948.0    0.00 
 265   20:00   0.00   59.0    75    0.5   291     1.5   948.1    0.00 

Return to Blue Oak Ranch Reserve graphs page.


Western Regional Climate Center,wrcc@dri.edu